createdAt,value
2023-04-07T00:00:31.739Z,99.90
2023-04-07T00:02:59.647Z,99.90
2023-04-07T00:05:27.532Z,99.90
2023-04-07T00:07:57.302Z,99.90
2023-04-07T00:10:25.771Z,99.90
2023-04-07T00:12:54.918Z,99.90
2023-04-07T00:15:22.730Z,99.90
2023-04-07T00:17:50.642Z,99.90
2023-04-07T00:20:18.476Z,99.90
2023-04-07T00:22:46.373Z,99.90
2023-04-07T00:25:14.181Z,99.90
2023-04-07T00:27:41.965Z,99.90
2023-04-07T00:30:11.653Z,99.90
2023-04-07T00:32:39.491Z,99.90
2023-04-07T00:35:08.015Z,99.90
2023-04-07T00:37:35.812Z,99.90
2023-04-07T00:40:04.131Z,99.90
2023-04-07T00:42:31.931Z,99.90
2023-04-07T00:44:59.750Z,99.90
2023-04-07T00:47:28.991Z,99.90
2023-04-07T00:49:56.804Z,99.90
2023-04-07T00:52:28.854Z,99.90
2023-04-07T00:54:56.859Z,99.90
2023-04-07T00:57:25.350Z,99.90
2023-04-07T00:59:53.202Z,99.90
2023-04-07T01:02:27.624Z,99.90
2023-04-07T01:05:08.033Z,99.90
2023-04-07T01:07:41.410Z,99.90
2023-04-07T01:10:12.367Z,99.90
2023-04-07T01:12:43.884Z,99.90
2023-04-07T01:15:13.303Z,99.90
2023-04-07T01:17:44.845Z,99.90
2023-04-07T01:20:15.194Z,99.90
2023-04-07T01:22:44.458Z,99.90
2023-04-07T01:25:28.519Z,99.90
2023-04-07T01:28:02.108Z,99.90
2023-04-07T01:30:32.531Z,99.90
2023-04-07T01:33:01.117Z,99.90
2023-04-07T01:35:30.409Z,99.90
2023-04-07T01:37:58.201Z,99.90
2023-04-07T01:40:25.993Z,99.90
2023-04-07T01:42:53.774Z,99.90
2023-04-07T01:45:21.688Z,99.90
2023-04-07T01:47:51.061Z,99.90
2023-04-07T01:50:18.870Z,99.90
2023-04-07T01:52:46.873Z,99.90
2023-04-07T01:55:14.635Z,99.90
2023-04-07T01:57:42.400Z,99.90
2023-04-07T02:00:11.088Z,99.90
2023-04-07T02:02:41.825Z,99.90
2023-04-07T02:05:13.487Z,99.90
2023-04-07T02:07:44.041Z,99.90
2023-04-07T02:10:12.824Z,99.90
2023-04-07T02:12:40.690Z,99.90
2023-04-07T02:15:09.808Z,99.90
2023-04-07T02:17:39.138Z,99.90
2023-04-07T02:20:07.780Z,99.90
2023-04-07T02:22:36.907Z,99.90
2023-04-07T02:25:04.959Z,99.90
2023-04-07T02:27:32.732Z,99.90
2023-04-07T02:30:00.669Z,99.90
2023-04-07T02:32:28.621Z,99.90
2023-04-07T02:34:56.651Z,99.90
2023-04-07T02:37:24.441Z,99.90
2023-04-07T02:39:53.543Z,99.90
2023-04-07T02:42:21.474Z,99.90
2023-04-07T02:44:49.217Z,99.90
2023-04-07T02:47:17.014Z,99.90
2023-04-07T02:49:44.761Z,99.90
2023-04-07T02:52:12.894Z,99.90
2023-04-07T02:54:40.641Z,99.90
2023-04-07T02:57:09.722Z,99.90
2023-04-07T02:59:37.465Z,99.90
2023-04-07T03:02:05.610Z,99.90
2023-04-07T03:04:33.469Z,99.90
2023-04-07T03:07:01.607Z,99.90
2023-04-07T03:09:29.390Z,99.90
2023-04-07T03:11:57.139Z,99.90
2023-04-07T03:14:26.468Z,99.90
2023-04-07T03:16:54.247Z,99.90
2023-04-07T03:19:22.023Z,99.90
2023-04-07T03:21:49.783Z,99.90
2023-04-07T03:24:18.310Z,99.90
2023-04-07T03:26:46.317Z,99.90
2023-04-07T03:29:14.256Z,99.90
2023-04-07T03:31:43.422Z,99.90
2023-04-07T03:34:11.292Z,99.90
2023-04-07T03:36:39.096Z,99.90
2023-04-07T03:39:06.946Z,99.90
2023-04-07T03:41:34.691Z,99.90
2023-04-07T03:44:02.486Z,99.90
2023-04-07T03:46:30.294Z,99.90
2023-04-07T03:48:59.421Z,99.90
2023-04-07T03:51:27.834Z,99.90
2023-04-07T03:53:55.638Z,99.90
2023-04-07T03:56:24.785Z,99.90
2023-04-07T03:58:52.573Z,99.90
2023-04-07T04:01:20.365Z,99.90
2023-04-07T04:03:48.243Z,99.90
2023-04-07T04:06:17.412Z,99.90
2023-04-07T04:08:45.184Z,99.90
2023-04-07T04:11:12.946Z,99.90
2023-04-07T04:13:40.697Z,99.90
2023-04-07T04:16:09.133Z,99.90
2023-04-07T04:18:36.912Z,99.90
2023-04-07T04:21:04.971Z,99.90
2023-04-07T04:23:34.111Z,99.90
2023-04-07T04:26:03.804Z,99.90
2023-04-07T04:28:31.743Z,99.90
2023-04-07T04:30:59.548Z,99.90
2023-04-07T04:33:27.659Z,99.90
2023-04-07T04:35:55.521Z,99.90
2023-04-07T04:38:23.368Z,99.90
2023-04-07T04:40:52.512Z,99.90
2023-04-07T04:43:20.386Z,99.90
2023-04-07T04:45:48.744Z,99.90
2023-04-07T04:48:17.338Z,99.90
2023-04-07T04:50:45.223Z,99.90
2023-04-07T04:53:13.079Z,99.90
2023-04-07T04:55:44.113Z,99.90
2023-04-07T04:58:13.288Z,99.90
2023-04-07T05:00:41.218Z,99.90
2023-04-07T05:03:09.278Z,99.90
2023-04-07T05:05:37.252Z,99.90
2023-04-07T05:08:05.557Z,99.90
2023-04-07T05:10:33.450Z,99.90
2023-04-07T05:13:01.293Z,99.90
2023-04-07T05:15:30.430Z,99.90
2023-04-07T05:17:58.340Z,99.90
2023-04-07T05:20:26.164Z,99.90
2023-04-07T05:22:53.940Z,99.90
2023-04-07T05:25:21.978Z,99.90
2023-04-07T05:27:49.845Z,99.90
2023-04-07T05:30:17.953Z,99.90
2023-04-07T05:32:47.120Z,99.90
2023-04-07T05:35:15.484Z,99.90
2023-04-07T05:37:43.278Z,99.90
2023-04-07T05:40:11.857Z,99.90
2023-04-07T05:42:39.638Z,99.90
2023-04-07T05:45:08.648Z,99.90
2023-04-07T05:47:36.538Z,99.90
2023-04-07T05:50:06.388Z,99.90
2023-04-07T05:52:34.188Z,99.90
2023-04-07T05:55:02.058Z,99.90
2023-04-07T05:57:29.862Z,99.90
2023-04-07T05:59:58.103Z,99.90
2023-04-07T06:02:26.128Z,99.90
2023-04-07T06:04:54.122Z,99.90
2023-04-07T06:07:23.233Z,99.90
2023-04-07T06:09:50.989Z,99.90
2023-04-07T06:12:18.824Z,99.90
2023-04-07T06:14:48.152Z,99.90
2023-04-07T06:17:15.939Z,99.90
2023-04-07T06:19:43.735Z,99.90
2023-04-07T06:22:11.486Z,99.90
2023-04-07T06:24:40.579Z,99.90
2023-04-07T06:27:08.601Z,99.90
2023-04-07T06:29:36.631Z,99.90
2023-04-07T06:32:04.441Z,99.90
2023-04-07T06:34:32.223Z,99.90
2023-04-07T06:37:00.164Z,99.90
2023-04-07T06:39:28.137Z,99.90
2023-04-07T06:41:57.778Z,99.90
2023-04-07T06:44:25.581Z,99.90
2023-04-07T06:46:55.385Z,99.90
2023-04-07T06:49:23.153Z,99.90
2023-04-07T06:51:50.910Z,99.90
2023-04-07T06:54:18.718Z,99.90
2023-04-07T06:56:46.648Z,99.90
2023-04-07T06:59:15.784Z,99.90
2023-04-07T07:01:43.784Z,99.90
2023-04-07T07:04:11.898Z,99.90
2023-04-07T07:06:39.833Z,99.90
2023-04-07T07:09:07.758Z,99.90
2023-04-07T07:11:35.886Z,99.90
2023-04-07T07:14:03.659Z,99.90
2023-04-07T07:16:32.823Z,99.90
2023-04-07T07:19:00.739Z,99.90
2023-04-07T07:21:28.569Z,99.90
2023-04-07T07:23:56.387Z,99.90
2023-04-07T07:26:24.155Z,99.90
2023-04-07T07:28:51.928Z,99.90
2023-04-07T07:31:19.716Z,99.90
2023-04-07T07:33:49.994Z,99.90
2023-04-07T07:36:18.089Z,99.90
2023-04-07T07:38:46.052Z,99.90
2023-04-07T07:41:13.935Z,99.90
2023-04-07T07:43:41.704Z,99.90
2023-04-07T07:46:09.531Z,99.90
2023-04-07T07:48:37.372Z,99.90
2023-04-07T07:51:07.054Z,99.90
2023-04-07T07:53:34.799Z,99.90
2023-04-07T07:56:02.564Z,99.90
2023-04-07T07:58:30.325Z,99.90
2023-04-07T08:00:58.107Z,99.90
2023-04-07T08:03:26.166Z,99.90
2023-04-07T08:05:54.041Z,99.90
2023-04-07T08:08:23.140Z,99.90
2023-04-07T08:10:50.902Z,99.90
2023-04-07T08:13:18.665Z,99.90
2023-04-07T08:15:46.476Z,99.90
2023-04-07T08:18:14.363Z,99.90
2023-04-07T08:20:42.150Z,99.90
2023-04-07T08:23:09.899Z,99.90
2023-04-07T08:25:39.958Z,99.90
2023-04-07T08:28:07.780Z,99.90
2023-04-07T08:30:35.811Z,99.90
2023-04-07T08:33:03.683Z,99.90
2023-04-07T08:35:31.530Z,99.90
2023-04-07T08:37:59.316Z,99.90
2023-04-07T08:40:27.077Z,99.90
2023-04-07T08:42:56.376Z,99.90
2023-04-07T08:45:24.134Z,99.90
2023-04-07T08:47:51.962Z,99.90
2023-04-07T08:50:19.779Z,99.90
2023-04-07T08:52:50.800Z,99.90
2023-04-07T08:55:18.573Z,99.00
2023-04-07T08:57:46.383Z,79.20
2023-04-07T09:00:16.141Z,97.30
2023-04-07T09:02:45.364Z,89.90
2023-04-07T09:05:14.560Z,46.40
2023-04-07T09:07:43.517Z,59.90
2023-04-07T09:10:11.420Z,92.30
2023-04-07T09:12:39.337Z,57.70
2023-04-07T09:15:08.679Z,88.20
2023-04-07T09:17:37.790Z,92.90
2023-04-07T09:20:06.333Z,80.90
2023-04-07T09:22:38.420Z,93.70
2023-04-07T09:25:17.082Z,42.70
2023-04-07T09:27:58.102Z,59.80
2023-04-07T09:30:25.936Z,40.30
2023-04-07T09:32:55.079Z,51.80
2023-04-07T09:35:23.917Z,56.50
2023-04-07T09:38:04.839Z,82.40
2023-04-07T09:40:32.661Z,77.10
2023-04-07T09:43:00.484Z,91.80
2023-04-07T09:45:34.502Z,93.70
2023-04-07T09:48:08.768Z,98.60
2023-04-07T09:50:37.382Z,83.10
2023-04-07T09:53:05.392Z,88.50
2023-04-07T09:55:34.963Z,53.80
2023-04-07T09:58:02.987Z,99.90
2023-04-07T10:00:30.757Z,75.10
2023-04-07T10:02:58.847Z,36.10
2023-04-07T10:05:28.548Z,17.10
2023-04-07T10:07:56.423Z,23.70
2023-04-07T10:10:24.185Z,17.70
2023-04-07T10:12:52.161Z,27.50
2023-04-07T10:15:19.955Z,17.30
2023-04-07T10:17:49.108Z,12.60
2023-04-07T10:20:17.872Z,6.90
2023-04-07T10:22:47.034Z,13.80
2023-04-07T10:25:16.190Z,10.30
2023-04-07T10:27:50.622Z,9.70
2023-04-07T10:30:19.907Z,11.50
2023-04-07T10:32:48.327Z,3.80
2023-04-07T10:35:17.172Z,35.50
2023-04-07T10:38:15.024Z,18.90
2023-04-07T10:40:43.634Z,27.40
2023-04-07T10:43:12.045Z,27.40
2023-04-07T10:45:59.320Z,15.80
2023-04-07T10:48:32.769Z,37.40
2023-04-07T10:51:15.306Z,28.20
2023-04-07T10:54:17.788Z,30.40
2023-04-07T10:57:10.667Z,34.80
2023-04-07T10:59:39.452Z,33.90
2023-04-07T11:02:33.667Z,12.60
2023-04-07T11:05:02.619Z,13.50
2023-04-07T11:07:54.959Z,13.00
2023-04-07T11:10:24.136Z,15.70
2023-04-07T11:13:12.820Z,6.00
2023-04-07T11:15:41.094Z,17.10
2023-04-07T11:18:21.544Z,8.50
2023-04-07T11:20:51.523Z,6.50
2023-04-07T11:23:20.172Z,5.30
2023-04-07T11:25:50.215Z,9.60
2023-04-07T11:28:18.133Z,5.30
2023-04-07T11:30:46.910Z,7.30
2023-04-07T11:33:18.911Z,15.50
2023-04-07T11:35:51.439Z,23.80
2023-04-07T11:38:19.564Z,23.00
2023-04-07T11:40:48.771Z,29.10
2023-04-07T11:43:17.773Z,31.50
2023-04-07T11:45:45.634Z,25.00
2023-04-07T11:48:30.240Z,15.50
2023-04-07T11:50:58.026Z,23.00
2023-04-07T11:53:29.420Z,89.60
2023-04-07T11:56:09.994Z,35.40
2023-04-07T11:58:38.600Z,37.30
2023-04-07T12:01:08.965Z,30.70
2023-04-07T12:03:37.758Z,22.10
2023-04-07T12:06:05.856Z,28.20
2023-04-07T12:08:40.856Z,34.00
2023-04-07T12:11:10.246Z,33.50
2023-04-07T12:13:38.208Z,33.40
2023-04-07T12:16:06.397Z,57.40
2023-04-07T12:18:34.319Z,70.90
2023-04-07T12:21:02.563Z,71.30
2023-04-07T12:23:30.511Z,92.90
2023-04-07T12:25:58.314Z,77.80
2023-04-07T12:28:27.674Z,91.10
2023-04-07T12:30:55.702Z,86.10
2023-04-07T12:33:23.892Z,89.50
2023-04-07T12:35:51.969Z,62.00
2023-04-07T12:38:19.827Z,61.70
2023-04-07T12:40:47.608Z,93.20
2023-04-07T12:43:15.386Z,75.20
2023-04-07T12:45:44.495Z,99.90
2023-04-07T12:48:12.688Z,92.60
2023-04-07T12:50:40.463Z,92.60
2023-04-07T12:53:09.282Z,81.30
2023-04-07T12:55:37.563Z,80.10
2023-04-07T12:58:05.712Z,95.20
2023-04-07T13:00:33.469Z,59.10
2023-04-07T13:03:03.529Z,82.90
2023-04-07T13:05:31.433Z,99.90
2023-04-07T13:07:59.686Z,91.00
2023-04-07T13:10:27.546Z,78.40
2023-04-07T13:12:55.539Z,71.40
2023-04-07T13:15:23.328Z,88.40
2023-04-07T13:17:51.280Z,83.30
2023-04-07T13:20:21.006Z,90.10
2023-04-07T13:22:57.608Z,93.40
2023-04-07T13:25:33.696Z,90.50
2023-04-07T13:28:02.628Z,82.50
2023-04-07T13:30:30.424Z,65.80
2023-04-07T13:32:58.455Z,67.40
2023-04-07T13:35:28.542Z,84.10
2023-04-07T13:37:56.314Z,88.30
2023-04-07T13:40:24.071Z,93.80
2023-04-07T13:42:51.880Z,85.60
2023-04-07T13:45:19.731Z,84.50
2023-04-07T13:47:47.547Z,81.70
2023-04-07T13:50:15.824Z,73.50
2023-04-07T13:52:45.139Z,96.40
2023-04-07T13:55:12.948Z,93.50
2023-04-07T13:57:40.745Z,95.70
2023-04-07T14:00:09.681Z,98.70
2023-04-07T14:02:37.499Z,99.90
2023-04-07T14:05:05.913Z,93.40
2023-04-07T14:07:34.513Z,92.60
2023-04-07T14:10:10.893Z,96.80
2023-04-07T14:12:38.710Z,80.00
2023-04-07T14:15:07.546Z,75.10
2023-04-07T14:17:35.620Z,91.30
2023-04-07T14:20:03.964Z,92.20
2023-04-07T14:22:31.743Z,95.80
2023-04-07T14:24:59.693Z,62.00
2023-04-07T14:27:31.252Z,90.80
2023-04-07T14:30:00.167Z,90.30
2023-04-07T14:32:29.419Z,94.10
2023-04-07T14:34:59.116Z,98.00
2023-04-07T14:37:28.498Z,99.90
2023-04-07T14:42:29.607Z,99.90
2023-04-07T14:44:57.896Z,99.90
2023-04-07T14:47:26.405Z,99.90
2023-04-07T14:49:54.349Z,99.90
2023-04-07T14:52:22.639Z,99.90
2023-04-07T14:54:50.491Z,92.60
2023-04-07T14:57:18.285Z,99.90
2023-04-07T14:59:48.348Z,94.40
2023-04-07T15:02:16.329Z,90.90
2023-04-07T15:04:44.322Z,99.70
2023-04-07T15:07:12.364Z,99.90
2023-04-07T15:09:40.401Z,99.90
2023-04-07T15:12:08.174Z,99.90
2023-04-07T15:14:35.964Z,99.90
2023-04-07T15:17:05.038Z,99.90
2023-04-07T15:19:32.846Z,99.90
2023-04-07T15:22:00.612Z,99.90
2023-04-07T15:24:28.386Z,99.90
2023-04-07T15:26:56.130Z,99.90
2023-04-07T15:29:23.897Z,99.90
2023-04-07T15:31:51.945Z,99.90
2023-04-07T15:34:21.093Z,99.90
2023-04-07T15:36:48.862Z,99.90
2023-04-07T15:39:16.895Z,99.90
2023-04-07T15:41:44.669Z,99.90
2023-04-07T15:44:12.450Z,99.90
2023-04-07T15:46:40.358Z,99.90
2023-04-07T15:49:08.193Z,99.90
2023-04-07T15:51:37.292Z,99.90
2023-04-07T15:54:05.100Z,99.90
2023-04-07T15:56:32.862Z,99.90
2023-04-07T15:59:00.806Z,99.90
2023-04-07T16:01:28.876Z,99.90
2023-04-07T16:03:56.815Z,99.90
2023-04-07T16:06:24.641Z,99.90
2023-04-07T16:08:53.717Z,99.90
2023-04-07T16:11:22.191Z,99.90
2023-04-07T16:13:50.208Z,99.90
2023-04-07T16:16:19.055Z,99.90
2023-04-07T16:18:47.919Z,99.90
2023-04-07T16:21:15.860Z,99.90
2023-04-07T16:23:43.789Z,99.90
2023-04-07T16:26:12.965Z,99.90
2023-04-07T16:28:41.865Z,99.90
2023-04-07T16:31:11.423Z,99.90
2023-04-07T16:33:39.197Z,99.90
2023-04-07T16:36:07.688Z,99.90
2023-04-07T16:38:35.543Z,99.90
2023-04-07T16:41:04.861Z,99.90
2023-04-07T16:43:34.235Z,99.90
2023-04-07T16:46:02.106Z,99.90
2023-04-07T16:48:30.237Z,99.90
2023-04-07T16:50:58.030Z,99.90
2023-04-07T16:53:25.973Z,99.90
2023-04-07T16:55:53.729Z,99.90
2023-04-07T16:58:21.521Z,99.90
2023-04-07T17:00:50.609Z,99.90
2023-04-07T17:03:18.413Z,99.90
2023-04-07T17:05:47.124Z,99.90
2023-04-07T17:08:14.863Z,99.90
2023-04-07T17:10:42.636Z,99.90
2023-04-07T17:13:10.424Z,99.90
2023-04-07T17:15:38.743Z,99.90
2023-04-07T17:18:07.953Z,99.90
2023-04-07T17:20:35.781Z,99.90
2023-04-07T17:23:03.595Z,99.90
2023-04-07T17:25:31.354Z,99.90
2023-04-07T17:27:59.141Z,99.90
2023-04-07T17:30:26.997Z,99.90
2023-04-07T17:32:54.842Z,99.90
2023-04-07T17:35:25.041Z,99.90
2023-04-07T17:37:53.029Z,99.90
2023-04-07T17:40:21.106Z,99.90
2023-04-07T17:42:48.860Z,99.90
2023-04-07T17:45:17.758Z,99.90
2023-04-07T17:47:46.163Z,99.90
2023-04-07T17:50:14.504Z,99.90
2023-04-07T17:52:43.630Z,99.90
2023-04-07T17:55:12.397Z,99.90
2023-04-07T17:57:42.052Z,99.90
2023-04-07T18:00:10.390Z,99.90
2023-04-07T18:02:40.126Z,99.90
2023-04-07T18:05:08.746Z,99.90
2023-04-07T18:07:36.618Z,99.90
2023-04-07T18:10:06.711Z,99.90
2023-04-07T18:12:34.704Z,99.90
2023-04-07T18:15:02.514Z,99.90
2023-04-07T18:17:30.328Z,99.90
2023-04-07T18:19:58.113Z,99.90
2023-04-07T18:22:27.134Z,99.90
2023-04-07T18:24:54.936Z,99.90
2023-04-07T18:27:25.286Z,99.90
2023-04-07T18:29:53.051Z,99.90
2023-04-07T18:32:20.827Z,99.90
2023-04-07T18:34:48.764Z,99.90
2023-04-07T18:37:16.627Z,99.90
2023-04-07T18:39:44.846Z,99.90
2023-04-07T18:42:12.641Z,99.90
2023-04-07T18:44:41.702Z,99.90
2023-04-07T18:47:09.500Z,99.90
2023-04-07T18:49:37.266Z,99.90
2023-04-07T18:52:05.614Z,99.90
2023-04-07T18:54:33.353Z,99.90
2023-04-07T18:57:01.343Z,99.90
2023-04-07T18:59:29.090Z,99.90
2023-04-07T19:01:58.269Z,99.90
2023-04-07T19:04:26.212Z,99.90
2023-04-07T19:06:53.972Z,99.90
2023-04-07T19:09:21.790Z,99.90
2023-04-07T19:11:49.544Z,99.90
2023-04-07T19:14:17.300Z,99.90
2023-04-07T19:16:45.755Z,99.90
2023-04-07T19:19:14.903Z,99.90
2023-04-07T19:21:42.691Z,99.90
2023-04-07T19:24:10.645Z,99.90
2023-04-07T19:26:38.417Z,99.90
2023-04-07T19:29:07.065Z,99.90
2023-04-07T19:31:35.321Z,99.90
2023-04-07T19:34:03.129Z,99.90
2023-04-07T19:36:32.813Z,99.90
2023-04-07T19:39:00.619Z,99.90
2023-04-07T19:41:29.298Z,99.90
2023-04-07T19:43:57.146Z,99.90
2023-04-07T19:46:24.948Z,99.90
2023-04-07T19:48:52.764Z,99.90
2023-04-07T19:51:20.900Z,99.90
2023-04-07T19:53:50.197Z,99.90
2023-04-07T19:56:18.154Z,99.90
2023-04-07T19:58:45.949Z,99.90
2023-04-07T20:01:17.765Z,99.90
2023-04-07T20:03:46.681Z,99.90
2023-04-07T20:06:14.632Z,99.90
2023-04-07T20:08:42.486Z,99.90
2023-04-07T20:11:13.127Z,99.90
2023-04-07T20:13:41.636Z,99.90
2023-04-07T20:16:09.806Z,99.90
2023-04-07T20:18:37.723Z,99.90
2023-04-07T20:21:06.792Z,99.90
2023-04-07T20:23:34.663Z,99.90
2023-04-07T20:26:02.609Z,99.90
2023-04-07T20:28:31.757Z,99.90
2023-04-07T20:31:00.003Z,99.90
2023-04-07T20:33:27.815Z,99.90
2023-04-07T20:35:55.622Z,99.90
2023-04-07T20:38:23.431Z,99.90
2023-04-07T20:40:51.201Z,99.90
2023-04-07T20:43:21.840Z,99.90
2023-04-07T20:45:52.066Z,99.90
2023-04-07T20:48:23.696Z,99.90
2023-04-07T20:50:51.838Z,99.90
2023-04-07T20:53:19.695Z,99.90
2023-04-07T20:55:47.562Z,99.90
2023-04-07T20:58:16.593Z,99.90
2023-04-07T21:00:44.342Z,99.90
2023-04-07T21:03:13.619Z,99.90
2023-04-07T21:05:41.579Z,99.90
2023-04-07T21:08:09.327Z,99.90
2023-04-07T21:10:37.100Z,99.90
2023-04-07T21:13:04.858Z,99.90
2023-04-07T21:15:32.686Z,99.90
2023-04-07T21:18:00.486Z,99.90
2023-04-07T21:20:29.627Z,99.90
2023-04-07T21:22:57.401Z,99.90
2023-04-07T21:25:25.410Z,99.90
2023-04-07T21:27:53.190Z,99.90
2023-04-07T21:30:22.453Z,99.90
2023-04-07T21:32:50.345Z,99.90
2023-04-07T21:35:19.644Z,99.90
2023-04-07T21:37:48.832Z,99.90
2023-04-07T21:40:16.673Z,99.90
2023-04-07T21:42:44.407Z,99.90
2023-04-07T21:45:12.791Z,99.90
2023-04-07T21:47:40.651Z,99.90
2023-04-07T21:50:09.154Z,99.90
2023-04-07T21:52:36.934Z,99.90
2023-04-07T21:55:07.105Z,99.90
2023-04-07T21:57:35.087Z,99.90
2023-04-07T22:00:02.912Z,99.90
2023-04-07T22:02:30.914Z,99.90
2023-04-07T22:04:58.905Z,99.90
2023-04-07T22:07:26.690Z,99.90
2023-04-07T22:09:54.467Z,99.90
2023-04-07T22:12:23.567Z,99.90
2023-04-07T22:14:51.347Z,99.90
2023-04-07T22:17:19.097Z,99.90
2023-04-07T22:19:46.853Z,99.90
2023-04-07T22:22:14.619Z,99.90
2023-04-07T22:24:42.381Z,99.90
2023-04-07T22:27:10.372Z,99.90
2023-04-07T22:29:39.480Z,99.90
2023-04-07T22:32:07.339Z,99.90
2023-04-07T22:34:35.097Z,99.90
2023-04-07T22:37:02.860Z,99.90
2023-04-07T22:39:30.869Z,99.90
2023-04-07T22:41:58.629Z,99.90
2023-04-07T22:44:26.407Z,99.90
2023-04-07T22:46:56.180Z,99.90
2023-04-07T22:49:23.961Z,99.90
2023-04-07T22:51:51.763Z,99.90
2023-04-07T22:54:19.531Z,99.90
2023-04-07T22:56:47.310Z,99.90
2023-04-07T22:59:15.333Z,99.90
2023-04-07T23:01:43.185Z,99.90
2023-04-07T23:04:12.351Z,99.90
2023-04-07T23:06:43.350Z,99.90
2023-04-07T23:09:11.573Z,99.90
2023-04-07T23:11:39.344Z,99.90
2023-04-07T23:14:07.282Z,99.90
2023-04-07T23:16:35.457Z,99.90
2023-04-07T23:19:03.234Z,99.90
2023-04-07T23:21:32.375Z,99.90
2023-04-07T23:24:00.573Z,99.90
2023-04-07T23:26:28.342Z,99.90
2023-04-07T23:28:56.090Z,99.90
2023-04-07T23:31:23.902Z,99.90
2023-04-07T23:33:51.711Z,99.90
2023-04-07T23:36:19.537Z,99.90
2023-04-07T23:38:48.936Z,99.90
2023-04-07T23:41:16.915Z,99.90
2023-04-07T23:43:44.665Z,99.90
2023-04-07T23:46:12.499Z,99.90
2023-04-07T23:48:40.886Z,99.90
2023-04-07T23:51:08.635Z,99.90
2023-04-07T23:53:36.369Z,99.90
2023-04-07T23:56:05.841Z,99.90
2023-04-07T23:58:33.598Z,99.90
